Time;durP1;ratioP1;P1;durP2;ratioP2;P2;SDS_P1;SDS_P2;PMS_P1;PMS_P2;Temp;Humidity;BMP_temperature;BMP_pressure;BME280_temperature;BME280_humidity;BME280_pressure;Samples;Min_cycle;Max_cycle;Signal;HPM_P1;HPM_P2
2020/12/09 00:00:51;;;;;;;43.10;22.53;;;4.20;99.90;;;;;;5052490;28;20513;-66
2020/12/09 00:03:17;;;;;;;39.83;22.07;;;4.10;99.90;;;;;;5052914;28;20227;-66
2020/12/09 00:05:43;;;;;;;38.63;20.53;;;4.10;99.90;;;;;;5053054;28;20763;-66
2020/12/09 00:08:10;;;;;;;41.93;23.40;;;4.10;99.90;;;;;;5052841;28;20269;-66
2020/12/09 00:10:35;;;;;;;43.50;24.43;;;4.10;99.90;;;;;;5052843;28;20186;-65
2020/12/09 00:13:01;;;;;;;39.30;21.83;;;4.10;99.90;;;;;;5051789;28;20199;-65
2020/12/09 00:15:26;;;;;;;41.20;22.37;;;4.10;99.90;;;;;;5053078;28;20229;-66
2020/12/09 00:17:52;;;;;;;47.57;23.67;;;4.10;99.90;;;;;;5052799;28;20575;-65
2020/12/09 00:20:17;;;;;;;41.40;22.87;;;4.10;99.90;;;;;;5052589;28;20228;-65
2020/12/09 00:22:43;;;;;;;48.17;24.43;;;4.10;99.90;;;;;;5052546;28;20194;-66
2020/12/09 00:25:09;;;;;;;40.77;23.20;;;4.00;99.90;;;;;;5052875;28;20694;-66
2020/12/09 00:27:35;;;;;;;40.70;22.17;;;4.00;99.90;;;;;;5052545;28;20191;-66
2020/12/09 00:30:02;;;;;;;43.20;22.30;;;4.00;99.90;;;;;;5052539;28;20178;-66
2020/12/09 00:32:33;;;;;;;41.50;23.60;;;4.10;99.90;;;;;;5051998;28;20199;-66
2020/12/09 00:34:58;;;;;;;42.90;24.40;;;4.00;99.90;;;;;;5052564;28;20717;-66
2020/12/09 00:37:24;;;;;;;37.87;22.80;;;4.00;99.90;;;;;;5052104;28;20297;-65
2020/12/09 00:39:50;;;;;;;44.37;23.37;;;4.00;99.90;;;;;;5052473;28;20167;-66
2020/12/09 00:42:15;;;;;;;40.37;21.87;;;4.00;99.90;;;;;;5052079;28;20222;-72
2020/12/09 00:44:41;;;;;;;42.93;22.50;;;4.10;99.90;;;;;;5052536;28;20190;-65
2020/12/09 00:47:06;;;;;;;34.27;21.03;;;4.00;99.90;;;;;;5051868;28;20182;-65
2020/12/09 00:49:32;;;;;;;37.90;20.73;;;4.00;99.90;;;;;;5052585;28;20715;-65
2020/12/09 00:51:58;;;;;;;42.90;23.23;;;4.00;99.90;;;;;;5051355;28;20583;-65
2020/12/09 00:54:23;;;;;;;40.70;23.40;;;4.00;99.90;;;;;;5051817;28;20187;-66
2020/12/09 00:56:49;;;;;;;37.83;21.37;;;4.00;99.90;;;;;;5052134;28;20261;-65
2020/12/09 00:59:15;;;;;;;37.47;20.57;;;4.00;99.90;;;;;;5052262;28;20163;-65
2020/12/09 01:01:40;;;;;;;43.27;22.33;;;3.90;99.90;;;;;;5051553;28;20194;-65
2020/12/09 01:04:06;;;;;;;37.10;20.53;;;3.90;99.90;;;;;;5051792;28;20179;-65
2020/12/09 01:06:34;;;;;;;38.47;20.73;;;3.90;99.90;;;;;;5052127;28;20182;-65
2020/12/09 01:09:04;;;;;;;35.37;20.93;;;3.90;99.90;;;;;;5050435;28;20179;-65
2020/12/09 01:11:29;;;;;;;37.37;21.63;;;3.90;99.90;;;;;;5051224;28;20182;-65
2020/12/09 01:13:55;;;;;;;36.97;21.67;;;3.90;99.90;;;;;;5052036;28;20182;-66
2020/12/09 01:16:20;;;;;;;37.30;22.47;;;3.90;99.90;;;;;;5051705;28;20195;-65
2020/12/09 01:18:48;;;;;;;35.03;21.00;;;3.80;99.90;;;;;;5052065;28;20179;-65
2020/12/09 01:21:14;;;;;;;40.17;22.97;;;3.80;99.90;;;;;;5051123;28;20167;-66
2020/12/09 01:23:40;;;;;;;35.97;20.90;;;3.80;99.90;;;;;;5051315;28;20198;-66
2020/12/09 01:26:10;;;;;;;35.30;21.53;;;3.80;99.90;;;;;;5051568;28;20186;-65
2020/12/09 01:28:36;;;;;;;39.40;21.80;;;3.70;99.90;;;;;;5051769;28;20186;-66
2020/12/09 01:31:02;;;;;;;40.10;21.53;;;3.70;99.90;;;;;;5050919;28;20178;-65
2020/12/09 01:33:27;;;;;;;38.97;20.77;;;3.70;99.90;;;;;;5051329;28;20206;-65
2020/12/09 01:35:53;;;;;;;36.23;22.37;;;3.60;99.90;;;;;;5051363;28;20683;-65
2020/12/09 01:38:18;;;;;;;38.73;22.17;;;3.70;99.90;;;;;;5051448;28;20606;-65
2020/12/09 01:40:44;;;;;;;34.87;20.67;;;3.70;99.90;;;;;;5051064;28;20178;-65
2020/12/09 01:43:10;;;;;;;38.67;21.93;;;3.70;99.90;;;;;;5051040;28;20226;-65
2020/12/09 01:45:35;;;;;;;38.37;22.87;;;3.70;99.90;;;;;;5051800;28;20538;-65
2020/12/09 01:48:01;;;;;;;35.73;22.33;;;3.60;99.90;;;;;;5051025;28;20707;-66
2020/12/09 01:50:26;;;;;;;38.77;21.97;;;3.60;99.90;;;;;;5050869;28;20188;-65
2020/12/09 01:52:52;;;;;;;38.13;22.70;;;3.50;99.90;;;;;;5050801;28;20296;-65
2020/12/09 01:55:18;;;;;;;39.80;22.20;;;3.50;99.90;;;;;;5051460;28;20205;-65
2020/12/09 01:57:44;;;;;;;38.03;22.20;;;3.40;99.90;;;;;;5051440;28;20170;-66
2020/12/09 02:00:09;;;;;;;34.97;21.00;;;3.40;99.90;;;;;;5050716;28;20170;-66
2020/12/09 02:02:35;;;;;;;36.73;21.53;;;3.40;99.90;;;;;;5050978;28;20195;-65
2020/12/09 02:05:01;;;;;;;43.50;24.03;;;3.40;99.90;;;;;;5052610;28;20205;-65
2020/12/09 02:07:28;;;;;;;39.90;23.13;;;3.40;99.90;;;;;;5055313;28;20186;-65
2020/12/09 02:10:01;;;;;;;42.87;24.30;;;3.40;99.90;;;;;;5055378;28;20175;-65
2020/12/09 02:12:27;;;;;;;39.93;22.57;;;3.40;99.90;;;;;;5054884;28;20236;-65
2020/12/09 02:14:53;;;;;;;42.37;23.67;;;3.40;99.90;;;;;;5055172;28;20213;-65
2020/12/09 02:17:18;;;;;;;38.57;23.03;;;3.40;99.90;;;;;;5055003;28;20183;-65
2020/12/09 02:19:44;;;;;;;39.67;21.63;;;3.40;99.90;;;;;;5054859;28;20390;-65
2020/12/09 02:22:11;;;;;;;35.83;22.27;;;3.40;99.90;;;;;;5053966;28;20297;-65
2020/12/09 02:24:38;;;;;;;37.67;21.53;;;3.40;99.90;;;;;;5055063;28;20179;-66
2020/12/09 02:27:03;;;;;;;32.53;21.13;;;3.40;99.90;;;;;;5054756;28;20657;-65
2020/12/09 02:29:29;;;;;;;36.30;21.60;;;3.30;99.90;;;;;;5053879;28;20201;-65
2020/12/09 02:31:55;;;;;;;42.20;23.43;;;3.30;99.90;;;;;;5054257;28;20221;-65
2020/12/09 02:34:21;;;;;;;46.73;24.53;;;3.30;99.90;;;;;;5054952;28;20611;-65
2020/12/09 02:36:46;;;;;;;36.03;23.70;;;3.30;99.90;;;;;;5054676;28;20225;-65
2020/12/09 02:39:12;;;;;;;35.60;21.37;;;3.30;99.90;;;;;;5054815;28;20539;-65
2020/12/09 02:41:37;;;;;;;38.83;22.33;;;3.10;99.90;;;;;;5054187;28;20206;-65
2020/12/09 02:44:03;;;;;;;44.00;24.33;;;3.10;99.90;;;;;;5054800;28;20244;-65
2020/12/09 02:46:29;;;;;;;35.20;21.07;;;3.00;99.90;;;;;;5054573;28;20190;-66
2020/12/09 02:48:57;;;;;;;42.80;23.53;;;3.00;99.90;;;;;;5054206;28;20195;-65
2020/12/09 02:51:23;;;;;;;37.37;22.00;;;3.00;99.90;;;;;;5054031;28;20317;-66
2020/12/09 02:53:49;;;;;;;36.73;21.83;;;2.90;99.90;;;;;;5054437;28;20189;-65
2020/12/09 02:56:16;;;;;;;40.17;23.10;;;2.90;99.90;;;;;;5052706;28;20731;-65
2020/12/09 02:58:42;;;;;;;31.63;19.10;;;2.80;99.90;;;;;;5054390;28;20249;-65
2020/12/09 03:01:08;;;;;;;44.63;25.23;;;2.70;99.90;;;;;;5053947;28;20632;-65
2020/12/09 03:03:33;;;;;;;41.63;23.70;;;2.70;99.90;;;;;;5054430;28;20199;-65
2020/12/09 03:05:59;;;;;;;41.33;23.87;;;2.70;99.90;;;;;;5054105;28;20187;-65
2020/12/09 03:08:25;;;;;;;46.70;25.23;;;2.70;99.90;;;;;;5054167;28;20236;-65
2020/12/09 03:10:50;;;;;;;46.67;25.63;;;2.70;99.90;;;;;;5053583;28;20557;-65
2020/12/09 03:13:16;;;;;;;44.27;24.30;;;2.70;99.90;;;;;;5054219;28;20273;-65
2020/12/09 03:15:42;;;;;;;49.40;25.60;;;2.70;99.90;;;;;;5053919;28;20737;-65
2020/12/09 03:18:07;;;;;;;47.90;25.40;;;2.70;99.90;;;;;;5054156;28;20170;-65
2020/12/09 03:20:33;;;;;;;47.67;26.33;;;2.60;99.90;;;;;;5053403;28;20191;-65
2020/12/09 03:22:58;;;;;;;53.60;29.17;;;2.60;99.90;;;;;;5053651;28;20203;-65
2020/12/09 03:25:24;;;;;;;53.10;28.40;;;2.50;99.90;;;;;;5054132;28;20587;-65
2020/12/09 03:27:49;;;;;;;55.87;26.97;;;2.40;99.90;;;;;;5054163;28;20170;-65
2020/12/09 03:30:15;;;;;;;59.47;29.87;;;2.40;99.90;;;;;;5053514;28;20241;-66
2020/12/09 03:32:41;;;;;;;45.13;25.93;;;2.30;99.90;;;;;;5053646;28;20199;-65
2020/12/09 03:35:06;;;;;;;65.57;30.33;;;2.30;99.90;;;;;;5053490;28;20206;-65
2020/12/09 03:37:32;;;;;;;58.07;29.90;;;2.30;99.90;;;;;;5053823;28;20198;-65
2020/12/09 03:39:58;;;;;;;62.70;27.87;;;2.30;99.90;;;;;;5053470;28;20207;-65
2020/12/09 03:42:23;;;;;;;52.60;28.47;;;2.30;99.90;;;;;;5052873;28;20281;-65
2020/12/09 03:44:49;;;;;;;58.97;29.93;;;2.20;99.90;;;;;;5053372;28;20198;-65
2020/12/09 03:47:14;;;;;;;58.70;28.90;;;2.20;99.90;;;;;;5053525;28;20186;-65
2020/12/09 03:49:40;;;;;;;62.17;31.07;;;2.20;99.90;;;;;;5053615;28;20261;-65
2020/12/09 03:52:05;;;;;;;63.07;32.20;;;2.20;99.90;;;;;;5052424;28;20220;-65
2020/12/09 03:54:31;;;;;;;63.47;30.97;;;2.20;99.90;;;;;;5053405;28;20589;-65
2020/12/09 03:56:57;;;;;;;57.37;28.17;;;2.20;99.90;;;;;;5052163;28;20183;-66
2020/12/09 03:59:22;;;;;;;75.63;33.57;;;2.20;99.90;;;;;;5053498;28;20186;-65
2020/12/09 04:01:48;;;;;;;65.60;27.53;;;2.10;99.90;;;;;;5052572;28;20199;-65
2020/12/09 04:04:13;;;;;;;65.00;31.73;;;2.10;99.90;;;;;;5053078;28;20221;-65
2020/12/09 04:06:39;;;;;;;71.67;31.13;;;2.10;99.90;;;;;;5053111;28;20175;-65
2020/12/09 04:09:05;;;;;;;65.63;31.90;;;2.10;99.90;;;;;;5053179;28;20179;-65
2020/12/09 04:11:31;;;;;;;64.80;31.67;;;2.10;99.90;;;;;;5052461;28;20176;-66
2020/12/09 04:13:57;;;;;;;80.70;33.87;;;2.20;99.90;;;;;;5052893;28;20182;-65
2020/12/09 04:16:22;;;;;;;71.30;33.53;;;2.20;99.90;;;;;;5053092;28;20211;-65
2020/12/09 04:18:48;;;;;;;74.77;32.43;;;2.30;99.90;;;;;;5052695;28;20175;-65
2020/12/09 04:21:14;;;;;;;76.33;35.70;;;2.30;99.90;;;;;;5052408;28;20186;-65
2020/12/09 04:23:39;;;;;;;80.93;33.93;;;2.40;99.90;;;;;;5052434;28;20616;-65
2020/12/09 04:26:05;;;;;;;78.50;35.83;;;2.40;99.90;;;;;;5052658;28;20645;-65
2020/12/09 04:28:30;;;;;;;78.57;33.90;;;2.40;99.90;;;;;;5052389;28;20250;-65
2020/12/09 04:30:56;;;;;;;82.80;35.60;;;2.40;99.90;;;;;;5051785;28;20166;-65
2020/12/09 04:33:27;;;;;;;71.40;33.17;;;2.40;99.90;;;;;;5052503;28;20546;-66
2020/12/09 04:35:53;;;;;;;90.40;36.23;;;2.50;99.90;;;;;;5052349;28;20194;-65
2020/12/09 04:38:18;;;;;;;69.50;30.43;;;2.50;99.90;;;;;;5053226;28;20277;-66
2020/12/09 04:40:44;;;;;;;74.50;35.33;;;2.50;99.90;;;;;;5051853;28;20175;-66
2020/12/09 04:43:10;;;;;;;75.10;33.23;;;2.50;99.90;;;;;;5052327;28;20207;-65
2020/12/09 04:45:37;;;;;;;75.87;34.30;;;2.60;99.90;;;;;;5052810;28;20640;-66
2020/12/09 04:48:08;;;;;;;74.40;33.50;;;2.50;99.90;;;;;;5052623;28;20240;-66
2020/12/09 04:51:07;;;;;;;76.13;32.77;;;2.50;99.90;;;;;;5052208;28;20587;-66
2020/12/09 04:53:33;;;;;;;67.57;31.20;;;2.50;99.90;;;;;;5052410;28;20745;-66
2020/12/09 04:55:59;;;;;;;70.27;32.77;;;2.50;99.90;;;;;;5051983;28;20206;-66
2020/12/09 04:58:28;;;;;;;70.37;31.97;;;2.50;99.90;;;;;;5051908;28;20289;-66
2020/12/09 05:01:07;;;;;;;65.63;32.33;;;2.40;99.90;;;;;;5052062;28;20640;-66
2020/12/09 05:03:50;;;;;;;68.30;33.10;;;2.40;99.90;;;;;;5052142;28;20205;-66
2020/12/09 05:06:18;;;;;;;75.97;32.33;;;2.50;99.90;;;;;;5052118;28;20274;-66
2020/12/09 05:08:57;;;;;;;72.23;31.17;;;2.40;99.90;;;;;;5052047;28;20586;-65
2020/12/09 05:11:27;;;;;;;59.20;29.87;;;2.50;99.90;;;;;;5051224;28;20183;-66
2020/12/09 05:13:58;;;;;;;62.47;32.17;;;2.50;99.90;;;;;;5052249;28;20179;-66
2020/12/09 05:16:25;;;;;;;66.47;32.27;;;2.50;99.90;;;;;;5051727;28;20210;-66
2020/12/09 05:18:55;;;;;;;60.90;28.47;;;2.50;99.90;;;;;;5051445;28;20206;-66
2020/12/09 05:21:23;;;;;;;51.93;29.20;;;2.50;99.90;;;;;;5051271;28;20175;-65
2020/12/09 05:23:53;;;;;;;73.33;33.03;;;2.50;99.90;;;;;;5051450;28;20214;-66
2020/12/09 05:26:25;;;;;;;56.77;31.93;;;2.50;99.90;;;;;;5052049;28;20515;-65
2020/12/09 05:29:04;;;;;;;65.60;31.63;;;2.40;99.90;;;;;;5051515;28;20183;-66
2020/12/09 05:31:30;;;;;;;67.93;33.43;;;2.50;99.90;;;;;;5050894;28;20685;-66
2020/12/09 05:33:56;;;;;;;61.37;29.97;;;2.50;99.90;;;;;;5050412;28;20186;-66
2020/12/09 05:36:23;;;;;;;61.50;30.57;;;2.50;99.90;;;;;;5051763;28;20202;-66
2020/12/09 05:39:05;;;;;;;56.40;30.30;;;2.50;99.90;;;;;;5050831;28;20640;-65
2020/12/09 05:41:32;;;;;;;61.33;29.60;;;2.50;99.90;;;;;;5050733;28;20622;-66
2020/12/09 05:44:02;;;;;;;53.80;29.60;;;2.50;99.90;;;;;;5051535;28;20174;-66
2020/12/09 05:46:28;;;;;;;53.87;27.80;;;2.50;99.90;;;;;;5051335;28;20179;-66
2020/12/09 05:48:54;;;;;;;57.07;30.37;;;2.50;99.90;;;;;;5051327;28;20175;-66
2020/12/09 05:51:19;;;;;;;54.23;27.77;;;2.40;99.90;;;;;;5050571;28;20208;-66
2020/12/09 05:53:47;;;;;;;49.30;27.93;;;2.40;99.90;;;;;;5051020;28;20232;-66
2020/12/09 05:56:18;;;;;;;51.90;27.47;;;2.40;99.90;;;;;;5051154;28;20203;-66
2020/12/09 05:58:47;;;;;;;52.60;27.47;;;2.30;99.90;;;;;;5051222;28;20171;-66
2020/12/09 06:01:14;;;;;;;55.30;26.07;;;2.30;99.90;;;;;;5050425;28;20184;-66
2020/12/09 06:03:43;;;;;;;56.70;28.07;;;2.30;99.90;;;;;;5050978;28;20190;-65
2020/12/09 06:06:08;;;;;;;47.33;25.63;;;2.20;99.90;;;;;;5050999;28;20182;-65
2020/12/09 06:08:43;;;;;;;52.87;28.50;;;2.20;99.90;;;;;;5051643;28;20182;-66
2020/12/09 06:11:10;;;;;;;52.80;28.27;;;2.20;99.90;;;;;;5049516;28;20185;-64
2020/12/09 06:13:36;;;;;;;51.47;28.77;;;2.20;99.90;;;;;;5051619;28;20197;-66
2020/12/09 06:16:03;;;;;;;46.37;25.77;;;2.20;99.90;;;;;;5050876;28;20738;-66
2020/12/09 06:18:31;;;;;;;51.93;28.70;;;2.20;99.90;;;;;;5051265;28;20178;-66
2020/12/09 06:20:57;;;;;;;54.17;28.80;;;2.20;99.90;;;;;;5050423;28;20190;-66
2020/12/09 06:23:26;;;;;;;55.10;30.67;;;2.30;99.90;;;;;;5050572;28;20667;-66
2020/12/09 06:25:52;;;;;;;49.57;27.50;;;2.30;99.90;;;;;;5051172;28;20186;-66
2020/12/09 06:28:20;;;;;;;49.50;25.80;;;2.30;99.90;;;;;;5050846;28;20179;-66
2020/12/09 06:30:46;;;;;;;50.53;28.40;;;2.30;99.90;;;;;;5050645;28;20182;-66
2020/12/09 06:33:12;;;;;;;48.27;28.03;;;2.30;99.90;;;;;;5050558;28;20202;-65
2020/12/09 06:35:38;;;;;;;47.20;27.23;;;2.30;99.90;;;;;;5051024;28;20200;-65
2020/12/09 06:38:10;;;;;;;54.87;28.07;;;2.30;99.90;;;;;;5050973;28;20737;-66
2020/12/09 06:40:36;;;;;;;49.03;26.60;;;2.30;99.90;;;;;;5050620;28;20541;-65
2020/12/09 06:43:09;;;;;;;51.17;27.23;;;2.30;99.90;;;;;;5045734;28;20191;-65
2020/12/09 06:45:44;;;;;;;51.60;28.43;;;2.30;99.90;;;;;;5051140;28;20186;-65
2020/12/09 06:48:11;;;;;;;51.33;28.63;;;2.40;99.90;;;;;;5041784;28;20202;-64
2020/12/09 06:50:37;;;;;;;49.50;26.90;;;2.40;99.90;;;;;;5051297;28;20539;-65
2020/12/09 06:53:12;;;;;;;50.90;26.97;;;2.40;99.90;;;;;;5053757;28;20206;-65
2020/12/09 06:55:38;;;;;;;47.20;26.57;;;2.40;99.90;;;;;;5054368;28;20206;-65
2020/12/09 06:58:23;;;;;;;44.03;25.37;;;2.40;99.90;;;;;;5054277;28;20662;-65
2020/12/09 07:01:08;;;;;;;53.03;27.47;;;2.50;99.90;;;;;;5054024;28;20667;-64
2020/12/09 07:03:38;;;;;;;45.70;25.13;;;2.60;99.90;;;;;;5053966;28;20203;-65
2020/12/09 07:06:26;;;;;;;52.00;26.40;;;2.60;99.90;;;;;;5054022;28;20670;-65
2020/12/09 07:08:52;;;;;;;49.23;27.20;;;2.60;99.90;;;;;;5054347;28;20182;-65
2020/12/09 07:11:17;;;;;;;43.37;26.63;;;2.50;99.90;;;;;;5054029;28;20266;-65
2020/12/09 07:13:43;;;;;;;47.83;28.30;;;2.60;99.90;;;;;;5051659;28;20206;-65
2020/12/09 07:16:08;;;;;;;52.60;26.43;;;2.50;99.90;;;;;;5053701;28;20565;-65
2020/12/09 07:18:37;;;;;;;54.10;28.23;;;2.50;99.90;;;;;;5053756;28;20672;-65
2020/12/09 07:21:06;;;;;;;47.73;26.53;;;2.40;99.90;;;;;;5053207;28;20221;-65
2020/12/09 07:23:33;;;;;;;50.60;27.37;;;2.30;99.90;;;;;;5053546;28;20623;-65
2020/12/09 07:26:00;;;;;;;58.80;26.30;;;2.20;99.90;;;;;;5053390;28;20179;-65
2020/12/09 07:28:32;;;;;;;49.63;27.07;;;2.20;99.90;;;;;;5053547;28;20183;-65
2020/12/09 07:31:09;;;;;;;46.33;27.43;;;2.10;99.90;;;;;;5053009;28;20175;-65
2020/12/09 07:33:35;;;;;;;49.13;24.13;;;2.00;99.90;;;;;;5053671;28;20194;-65
2020/12/09 07:36:09;;;;;;;53.20;27.67;;;2.00;99.90;;;;;;5053382;28;20569;-65
2020/12/09 07:38:35;;;;;;;52.63;28.40;;;2.00;99.90;;;;;;5053942;28;20178;-65
2020/12/09 07:41:01;;;;;;;54.20;28.50;;;1.90;99.90;;;;;;5052891;28;20254;-65
2020/12/09 07:43:27;;;;;;;53.40;28.63;;;1.90;99.90;;;;;;5053235;28;20206;-65
2020/12/09 07:46:00;;;;;;;48.93;26.90;;;1.90;99.90;;;;;;5053528;28;20183;-65
2020/12/09 07:48:30;;;;;;;48.73;25.77;;;1.80;99.90;;;;;;5053635;28;20269;-65
2020/12/09 07:50:58;;;;;;;56.43;27.83;;;1.70;99.90;;;;;;5052524;28;20183;-65
2020/12/09 07:53:27;;;;;;;55.93;27.23;;;1.60;99.90;;;;;;5052606;28;20259;-65
2020/12/09 07:55:53;;;;;;;52.47;28.37;;;1.50;99.90;;;;;;5052961;28;20205;-65
2020/12/09 07:58:19;;;;;;;54.57;27.17;;;1.40;99.90;;;;;;5052889;28;20246;-65
2020/12/09 08:00:47;;;;;;;50.93;25.43;;;1.30;99.90;;;;;;5053036;28;20171;-65
2020/12/09 08:03:24;;;;;;;57.80;29.87;;;1.30;99.90;;;;;;5051238;28;20275;-65
2020/12/09 08:05:50;;;;;;;55.03;28.77;;;1.30;99.90;;;;;;5053090;28;20254;-65
2020/12/09 08:08:20;;;;;;;57.10;27.40;;;1.30;99.90;;;;;;5052817;28;20210;-65
2020/12/09 08:10:46;;;;;;;58.87;30.17;;;1.30;99.90;;;;;;5052464;28;20190;-65
2020/12/09 08:13:22;;;;;;;58.30;29.03;;;1.30;99.90;;;;;;5052317;28;20234;-65
2020/12/09 08:16:06;;;;;;;51.00;28.50;;;1.30;99.90;;;;;;5053024;28;20194;-65
2020/12/09 08:18:31;;;;;;;54.63;27.63;;;1.30;99.90;;;;;;5053296;28;20580;-65
2020/12/09 08:20:57;;;;;;;58.10;28.17;;;1.30;99.90;;;;;;5052039;28;20179;-65
2020/12/09 08:23:43;;;;;;;53.53;27.67;;;1.40;99.90;;;;;;5052336;28;20209;-64
2020/12/09 08:26:10;;;;;;;59.47;28.83;;;1.40;99.90;;;;;;5032813;28;20183;-64
2020/12/09 08:28:36;;;;;;;62.57;28.77;;;1.40;99.90;;;;;;5041180;28;20209;-65
2020/12/09 08:31:14;;;;;;;60.57;29.83;;;1.40;99.90;;;;;;5051789;28;20171;-65
2020/12/09 08:33:40;;;;;;;54.77;27.47;;;1.50;99.90;;;;;;5052593;28;20189;-65
2020/12/09 08:36:10;;;;;;;64.03;29.87;;;1.60;99.90;;;;;;5052034;28;20684;-65
2020/12/09 08:38:39;;;;;;;64.40;29.93;;;1.70;99.90;;;;;;5052324;28;20183;-65
2020/12/09 08:41:10;;;;;;;64.20;31.90;;;1.80;99.90;;;;;;5051737;28;20233;-65
2020/12/09 08:43:38;;;;;;;57.00;30.27;;;1.90;99.90;;;;;;5052527;28;20179;-64
2020/12/09 08:46:05;;;;;;;56.83;29.73;;;2.00;99.90;;;;;;5052075;28;20285;-64
2020/12/09 08:48:33;;;;;;;63.00;30.93;;;2.00;99.90;;;;;;5052577;28;20178;-65
2020/12/09 08:50:59;;;;;;;61.33;31.10;;;2.20;99.90;;;;;;5051853;28;20573;-65
2020/12/09 08:53:25;;;;;;;55.37;28.63;;;2.40;99.90;;;;;;5051743;28;20210;-64
2020/12/09 08:55:50;;;;;;;51.10;29.87;;;2.70;99.90;;;;;;5052485;28;20201;-65
2020/12/09 08:58:17;;;;;;;47.33;28.57;;;3.10;99.90;;;;;;5051984;28;20278;-65
2020/12/09 09:00:44;;;;;;;48.60;27.70;;;3.60;99.90;;;;;;5052339;28;20253;-65
2020/12/09 09:03:13;;;;;;;38.43;22.93;;;4.00;99.90;;;;;;5052810;28;20194;-65
2020/12/09 09:05:40;;;;;;;33.60;22.30;;;4.40;99.90;;;;;;5053182;28;20672;-65
2020/12/09 09:08:07;;;;;;;32.40;20.50;;;4.70;99.90;;;;;;5051781;28;20183;-66
2020/12/09 09:10:32;;;;;;;31.70;19.70;;;5.00;99.90;;;;;;5051489;28;20179;-65
2020/12/09 09:12:58;;;;;;;29.73;18.90;;;5.40;99.90;;;;;;5051099;28;20679;-65
2020/12/09 09:15:24;;;;;;;28.60;18.77;;;5.90;99.90;;;;;;5050488;28;20206;-65
2020/12/09 09:17:49;;;;;;;25.73;18.70;;;6.50;99.90;;;;;;5051839;28;20532;-65
2020/12/09 09:20:15;;;;;;;25.77;17.13;;;7.00;99.90;;;;;;5049854;28;20201;-65
2020/12/09 09:22:40;;;;;;;24.03;16.83;;;7.40;99.90;;;;;;5038718;28;20199;-65
2020/12/09 09:25:06;;;;;;;25.90;17.90;;;7.70;99.90;;;;;;5030811;28;20712;-65
2020/12/09 09:27:32;;;;;;;28.10;18.57;;;8.10;99.90;;;;;;5051958;28;20167;-65
2020/12/09 09:29:58;;;;;;;26.30;17.93;;;8.40;99.90;;;;;;5051247;28;20167;-66
2020/12/09 09:32:25;;;;;;;28.50;18.40;;;8.70;99.90;;;;;;5051422;28;20201;-65
2020/12/09 09:34:51;;;;;;;22.73;16.70;;;9.00;99.90;;;;;;5051703;28;20245;-65
2020/12/09 09:37:17;;;;;;;26.17;18.43;;;9.10;99.90;;;;;;5051042;28;20187;-66
2020/12/09 09:39:43;;;;;;;27.03;18.80;;;8.70;99.90;;;;;;5051567;28;20167;-65
2020/12/09 09:42:09;;;;;;;27.83;19.37;;;8.40;99.90;;;;;;5050848;28;20199;-65
2020/12/09 09:44:35;;;;;;;31.90;19.63;;;7.90;99.90;;;;;;5051439;28;20599;-65
2020/12/09 09:47:01;;;;;;;33.67;19.53;;;7.50;99.90;;;;;;5050894;28;20262;-65
2020/12/09 09:49:27;;;;;;;28.17;18.87;;;7.20;99.90;;;;;;5051473;28;20171;-65
2020/12/09 09:51:53;;;;;;;27.73;18.73;;;7.00;99.90;;;;;;5050636;28;20238;-64
2020/12/09 09:54:20;;;;;;;30.93;19.80;;;6.80;99.90;;;;;;5051199;28;20224;-65
2020/12/09 09:56:46;;;;;;;32.37;21.37;;;6.50;99.90;;;;;;5049010;28;20570;-65
2020/12/09 09:59:11;;;;;;;31.97;20.07;;;6.30;99.90;;;;;;5051025;28;20227;-65
2020/12/09 10:01:37;;;;;;;27.77;19.30;;;6.20;99.90;;;;;;5050799;28;20175;-65
2020/12/09 10:04:06;;;;;;;30.03;19.00;;;5.90;99.90;;;;;;5051384;28;20171;-65
2020/12/09 10:06:33;;;;;;;31.50;19.77;;;5.90;99.90;;;;;;5051277;28;20186;-65
2020/12/09 10:08:59;;;;;;;31.47;19.07;;;6.10;99.90;;;;;;5051045;28;20178;-65
2020/12/09 10:11:25;;;;;;;29.30;19.63;;;6.50;99.90;;;;;;5050700;28;20178;-65
2020/12/09 10:13:51;;;;;;;28.30;18.70;;;6.80;99.90;;;;;;5051134;28;20655;-65
2020/12/09 10:16:23;;;;;;;28.97;18.80;;;7.10;99.90;;;;;;5050774;28;20207;-65
2020/12/09 10:18:50;;;;;;;30.37;19.67;;;7.30;99.90;;;;;;5051100;28;20512;-65
2020/12/09 10:21:22;;;;;;;33.00;20.83;;;7.60;99.90;;;;;;5050788;28;20207;-65
2020/12/09 10:23:47;;;;;;;29.03;18.10;;;7.90;99.90;;;;;;5050298;28;20245;-65
2020/12/09 10:26:13;;;;;;;27.87;19.37;;;8.10;99.90;;;;;;5052305;28;20174;-65
2020/12/09 10:28:39;;;;;;;29.60;19.40;;;8.30;99.90;;;;;;5055087;28;20179;-65
2020/12/09 10:31:04;;;;;;;27.07;19.43;;;8.50;99.90;;;;;;5054166;28;20170;-65
2020/12/09 10:33:30;;;;;;;31.70;20.50;;;8.20;99.90;;;;;;5054722;28;20205;-65
2020/12/09 10:35:55;;;;;;;29.40;19.93;;;8.60;99.90;;;;;;5055029;28;20203;-65
2020/12/09 10:38:21;;;;;;;29.10;19.30;;;8.90;99.90;;;;;;5053914;28;20257;-65
2020/12/09 10:40:46;;;;;;;26.67;19.20;;;9.40;99.90;;;;;;5053674;28;20177;-64
2020/12/09 10:43:13;;;;;;;25.23;17.83;;;9.60;99.90;;;;;;5054243;28;20191;-65
2020/12/09 10:45:39;;;;;;;26.33;17.87;;;9.80;99.90;;;;;;5054394;28;20548;-64
2020/12/09 10:48:04;;;;;;;25.97;18.33;;;10.00;99.90;;;;;;5054475;28;20201;-65
2020/12/09 10:50:30;;;;;;;26.70;19.20;;;10.50;99.90;;;;;;5054347;28;20539;-65
2020/12/09 10:55:24;;;;;;;25.83;18.93;;;10.60;99.90;;;;;;5012435;28;20318;-64
2020/12/09 10:57:50;;;;;;;26.00;19.20;;;10.60;99.90;;;;;;5015048;28;20171;-63
2020/12/09 11:00:15;;;;;;;29.50;20.27;;;10.60;99.90;;;;;;5013751;28;20179;-64
2020/12/09 11:02:41;;;;;;;27.27;19.83;;;10.40;99.90;;;;;;5014972;28;20195;-66
2020/12/09 11:05:06;;;;;;;30.57;20.87;;;10.20;99.90;;;;;;5014474;28;20180;-64
2020/12/09 11:07:32;;;;;;;27.63;18.67;;;10.10;99.90;;;;;;5014783;28;20203;-63
2020/12/09 11:09:58;;;;;;;30.07;20.63;;;10.00;99.90;;;;;;5014323;28;20187;-64
2020/12/09 11:12:23;;;;;;;30.33;20.97;;;9.90;99.90;;;;;;5014382;28;20548;-63
2020/12/09 11:14:49;;;;;;;28.33;20.17;;;9.60;99.90;;;;;;5012206;28;20219;-64
2020/12/09 11:17:15;;;;;;;28.97;20.03;;;9.20;99.90;;;;;;5014490;28;20180;-63
2020/12/09 11:19:41;;;;;;;29.37;20.73;;;9.30;99.90;;;;;;5014360;28;20566;-63
2020/12/09 11:22:06;;;;;;;34.63;21.53;;;9.40;99.90;;;;;;5014020;28;20563;-64
2020/12/09 11:24:32;;;;;;;33.07;22.17;;;9.70;99.90;;;;;;5014782;28;20211;-64
2020/12/09 11:26:57;;;;;;;30.63;20.20;;;9.90;99.90;;;;;;5014260;28;20180;-64
2020/12/09 11:29:23;;;;;;;33.97;20.43;;;10.10;99.90;;;;;;5014401;28;20537;-64
2020/12/09 11:31:49;;;;;;;29.43;20.67;;;10.30;99.90;;;;;;5013883;28;20192;-64
2020/12/09 11:34:14;;;;;;;28.20;19.30;;;10.20;99.90;;;;;;5013381;28;20195;-64
2020/12/09 11:36:40;;;;;;;29.03;19.53;;;10.00;99.90;;;;;;5013560;28;20192;-64
2020/12/09 11:39:05;;;;;;;30.63;20.97;;;9.90;99.90;;;;;;5012503;28;20484;-65
2020/12/09 11:41:34;;;;;;;30.57;21.97;;;10.00;99.90;;;;;;5013836;28;20259;-64
2020/12/09 11:43:59;;;;;;;30.10;20.07;;;10.10;99.90;;;;;;5014268;28;20192;-64
2020/12/09 11:46:26;;;;;;;29.93;22.07;;;10.30;99.90;;;;;;5014347;28;20587;-63
2020/12/09 11:48:52;;;;;;;33.93;22.27;;;10.30;99.90;;;;;;5014208;28;20231;-64
2020/12/09 11:51:18;;;;;;;32.67;21.90;;;9.90;99.90;;;;;;5013397;28;20172;-64
2020/12/09 11:53:44;;;;;;;41.30;24.83;;;9.70;99.90;;;;;;5013758;28;20294;-64
2020/12/09 11:56:11;;;;;;;40.50;24.97;;;9.20;99.90;;;;;;5013761;28;20211;-64
2020/12/09 11:58:37;;;;;;;38.27;23.87;;;8.60;99.90;;;;;;5014192;28;20629;-64
2020/12/09 12:01:06;;;;;;;42.00;25.43;;;8.10;99.90;;;;;;5013697;28;20176;-64
2020/12/09 12:03:32;;;;;;;43.07;26.40;;;7.70;99.90;;;;;;5013837;28;20188;-62
2020/12/09 12:05:58;;;;;;;51.60;28.13;;;7.30;99.90;;;;;;5013557;28;20597;-64
2020/12/09 12:08:24;;;;;;;45.83;27.27;;;7.20;99.90;;;;;;5013743;28;20596;-64
2020/12/09 12:10:49;;;;;;;48.20;28.00;;;7.10;99.90;;;;;;5013442;28;20181;-65
2020/12/09 12:13:15;;;;;;;43.53;27.03;;;7.20;99.90;;;;;;5013549;28;20192;-64
2020/12/09 12:15:42;;;;;;;48.43;28.50;;;7.50;99.90;;;;;;5013476;28;20200;-63
2020/12/09 12:18:08;;;;;;;39.47;22.87;;;7.80;99.90;;;;;;5013359;28;20203;-65
2020/12/09 12:20:34;;;;;;;36.20;23.70;;;8.10;99.90;;;;;;5013096;28;20226;-63
2020/12/09 12:23:00;;;;;;;42.57;23.83;;;8.30;99.90;;;;;;5013243;28;20599;-64
2020/12/09 12:25:25;;;;;;;36.57;22.13;;;8.50;99.90;;;;;;5011872;28;20299;-65
2020/12/09 12:27:51;;;;;;;35.73;21.90;;;8.50;99.90;;;;;;5013163;28;20198;-64
2020/12/09 12:30:16;;;;;;;31.17;22.27;;;8.60;99.90;;;;;;5013023;28;20646;-64
2020/12/09 12:32:42;;;;;;;36.87;22.80;;;8.70;99.90;;;;;;5013216;28;20196;-64
2020/12/09 12:35:08;;;;;;;32.60;20.40;;;8.60;99.90;;;;;;5013049;28;20298;-65
2020/12/09 12:37:34;;;;;;;32.80;19.93;;;8.60;99.90;;;;;;5012182;28;20172;-64